Time;durP1;ratioP1;P1;durP2;ratioP2;P2;SDS_P1;SDS_P2;PMS_P1;PMS_P2;Temp;Humidity;BMP_temperature;BMP_pressure;BME280_temperature;BME280_humidity;BME280_pressure;Samples;Min_cycle;Max_cycle;Signal;HPM_P1;HPM_P2
2022/07/20 00:01:52;;;;;;;6.97;5.38;;;19.50;99.90;;;;;;5054085;28;20529;-60
2022/07/20 00:04:19;;;;;;;9.02;5.50;;;19.50;99.90;;;;;;5053580;28;20107;-60
2022/07/20 00:06:46;;;;;;;10.65;5.35;;;19.40;99.90;;;;;;5065878;28;20123;-60
2022/07/20 00:11:58;;;;;;;9.55;5.70;;;19.50;99.90;;;;;;5074034;28;20047;-60
2022/07/20 00:14:25;;;;;;;10.68;5.35;;;19.50;99.90;;;;;;5058906;28;20519;-59
2022/07/20 00:16:51;;;;;;;9.40;5.43;;;19.50;99.90;;;;;;5065485;28;20547;-60
2022/07/20 00:19:19;;;;;;;8.35;5.30;;;19.40;99.90;;;;;;5074212;28;20114;-60
2022/07/20 00:21:45;;;;;;;10.23;5.10;;;19.30;99.90;;;;;;5070178;28;20048;-59
2022/07/20 00:24:12;;;;;;;9.18;5.35;;;19.30;99.90;;;;;;5064304;28;20041;-60
2022/07/20 00:26:39;;;;;;;8.57;5.95;;;19.10;99.90;;;;;;5073905;28;20512;-60
2022/07/20 00:29:06;;;;;;;9.57;5.78;;;18.90;99.90;;;;;;5056164;28;20451;-60
2022/07/20 00:31:33;;;;;;;9.27;5.93;;;18.80;99.90;;;;;;5068539;28;20436;-60
2022/07/20 00:34:00;;;;;;;10.07;5.63;;;18.70;99.90;;;;;;5064498;28;20083;-60
2022/07/20 00:36:26;;;;;;;7.68;5.82;;;18.60;99.90;;;;;;5073956;28;20052;-60
2022/07/20 00:38:53;;;;;;;11.25;5.90;;;18.50;99.90;;;;;;5073530;28;20052;-60
2022/07/20 00:41:21;;;;;;;9.35;6.40;;;18.50;99.90;;;;;;5056586;28;20044;-60
2022/07/20 00:44:03;;;;;;;9.13;5.40;;;18.50;99.90;;;;;;5065216;28;20037;-60
2022/07/20 00:46:32;;;;;;;7.68;5.38;;;18.50;99.90;;;;;;5073620;28;20040;-60
2022/07/20 00:49:00;;;;;;;9.93;5.60;;;18.60;99.90;;;;;;5067471;28;20127;-60
2022/07/20 00:51:27;;;;;;;7.85;5.75;;;18.60;99.90;;;;;;5064822;28;20094;-60
2022/07/20 00:53:54;;;;;;;9.38;6.43;;;18.70;99.90;;;;;;5073400;28;20056;-60
2022/07/20 00:56:21;;;;;;;9.85;6.45;;;18.70;99.90;;;;;;5073499;28;20063;-59
2022/07/20 00:58:48;;;;;;;;;;;18.80;99.90;;;;;;5064657;28;20037;-60
2022/07/20 01:01:16;;;;;;;10.45;5.95;;;18.80;99.90;;;;;;5064426;28;20027;-59
2022/07/20 01:03:44;;;;;;;8.75;5.90;;;18.80;99.90;;;;;;5073151;28;20044;-60
2022/07/20 01:06:11;;;;;;;10.68;6.15;;;18.80;99.90;;;;;;5073165;28;20105;-60
2022/07/20 01:08:38;;;;;;;7.80;6.10;;;18.80;99.90;;;;;;5057731;28;20061;-59
2022/07/20 01:11:05;;;;;;;8.00;6.10;;;18.80;99.90;;;;;;5035390;28;20040;-60
2022/07/20 01:13:33;;;;;;;8.30;6.28;;;18.80;99.90;;;;;;5052954;28;20059;-59
2022/07/20 01:16:00;;;;;;;7.50;5.40;;;18.80;99.90;;;;;;5051427;28;20041;-60
2022/07/20 01:18:27;;;;;;;7.65;5.72;;;18.70;99.90;;;;;;5052787;28;20493;-59
2022/07/20 01:21:04;;;;;;;8.95;5.93;;;18.70;99.90;;;;;;5058730;28;20561;-60
2022/07/20 01:23:31;;;;;;;10.00;5.55;;;18.70;99.90;;;;;;5067512;28;20090;-59
2022/07/20 01:25:58;;;;;;;7.93;5.45;;;18.60;99.90;;;;;;5072993;28;20447;-59
2022/07/20 01:28:26;;;;;;;;;;;18.70;99.90;;;;;;5073309;28;20033;-59
2022/07/20 01:30:53;;;;;;;7.40;6.20;;;18.60;99.90;;;;;;5060991;28;19931;-60
2022/07/20 01:33:21;;;;;;;9.75;5.75;;;18.60;99.90;;;;;;5066437;28;20115;-59
2022/07/20 01:35:48;;;;;;;9.85;5.70;;;18.60;99.90;;;;;;5072503;28;20051;-60
2022/07/20 01:38:15;;;;;;;8.15;5.93;;;18.50;99.90;;;;;;5072587;28;20037;-60
2022/07/20 01:40:42;;;;;;;;;;;18.50;99.90;;;;;;5059436;28;20118;-60
2022/07/20 01:43:08;;;;;;;9.00;6.13;;;18.50;99.90;;;;;;5072379;28;19920;-60
2022/07/20 01:45:35;;;;;;;8.02;5.43;;;18.50;99.90;;;;;;5072474;28;20055;-59
2022/07/20 01:48:03;;;;;;;10.20;6.43;;;18.40;99.90;;;;;;5061170;28;20052;-59
2022/07/20 01:50:29;;;;;;;7.70;6.28;;;18.40;99.90;;;;;;5063645;28;20056;-59
2022/07/20 01:52:56;;;;;;;9.52;6.30;;;18.40;99.90;;;;;;5072239;28;20044;-59
2022/07/20 01:55:23;;;;;;;8.15;6.20;;;18.50;99.90;;;;;;5072371;28;20328;-59
2022/07/20 01:57:50;;;;;;;8.70;6.22;;;18.50;99.90;;;;;;5061247;28;20056;-59
2022/07/20 02:00:17;;;;;;;10.07;5.78;;;18.40;99.90;;;;;;5065120;28;20081;-59
2022/07/20 02:02:48;;;;;;;7.97;5.75;;;18.30;99.90;;;;;;5072136;28;20177;-60
2022/07/20 02:05:16;;;;;;;12.05;7.13;;;18.30;99.90;;;;;;5067689;28;20044;-59
2022/07/20 02:07:43;;;;;;;7.47;6.15;;;18.30;99.90;;;;;;5057646;28;20052;-59
2022/07/20 02:10:10;;;;;;;;;;;18.20;99.90;;;;;;5072112;28;20036;-60
2022/07/20 02:12:38;;;;;;;10.20;5.80;;;18.20;99.90;;;;;;5070164;28;19927;-60
2022/07/20 02:15:10;;;;;;;8.82;6.50;;;18.20;99.90;;;;;;5060119;28;20032;-60
2022/07/20 02:17:37;;;;;;;11.00;6.43;;;18.20;99.90;;;;;;5051902;28;20033;-60
2022/07/20 02:20:05;;;;;;;12.05;6.90;;;18.10;99.90;;;;;;5051357;28;20048;-59
2022/07/20 02:22:31;;;;;;;10.20;6.72;;;18.20;99.90;;;;;;5050361;28;20045;-59
2022/07/20 02:24:58;;;;;;;13.82;7.03;;;18.10;99.90;;;;;;5061533;28;20052;-59
2022/07/20 02:27:25;;;;;;;9.60;6.70;;;18.10;99.90;;;;;;5072040;28;20374;-59
2022/07/20 02:29:52;;;;;;;10.27;6.75;;;18.10;99.90;;;;;;5071390;28;20493;-60
2022/07/20 02:32:18;;;;;;;10.20;6.75;;;18.20;99.90;;;;;;5059386;28;20044;-59
2022/07/20 02:34:45;;;;;;;11.23;6.75;;;18.20;99.90;;;;;;5068716;28;20045;-60
2022/07/20 02:37:12;;;;;;;11.02;6.95;;;18.20;99.90;;;;;;5071715;28;20048;-60
2022/07/20 02:39:39;;;;;;;8.32;6.85;;;18.20;99.90;;;;;;5063026;28;20048;-60
2022/07/20 02:42:06;;;;;;;10.25;6.45;;;18.20;99.90;;;;;;5063140;28;20053;-59
2022/07/20 02:44:32;;;;;;;11.15;7.30;;;18.10;99.90;;;;;;5071315;28;20055;-59
2022/07/20 02:46:59;;;;;;;13.57;6.95;;;18.10;99.90;;;;;;5070858;28;20044;-59
2022/07/20 02:49:26;;;;;;;9.57;6.75;;;18.00;99.90;;;;;;5060549;28;20146;-60
2022/07/20 02:51:52;;;;;;;11.38;7.13;;;18.10;99.90;;;;;;5069451;28;20043;-60
2022/07/20 02:54:19;;;;;;;7.78;6.88;;;18.00;99.90;;;;;;5071231;28;20502;-59
2022/07/20 02:56:46;;;;;;;12.10;6.68;;;18.00;99.90;;;;;;5071467;28;20094;-60
2022/07/20 02:59:13;;;;;;;9.75;6.68;;;17.90;99.90;;;;;;5053160;28;20064;-59
2022/07/20 03:01:39;;;;;;;12.88;6.10;;;18.00;99.90;;;;;;5067560;28;20386;-59
2022/07/20 03:04:07;;;;;;;;;;;17.90;99.90;;;;;;5071688;28;20051;-59
2022/07/20 03:06:34;;;;;;;7.53;6.38;;;17.90;99.90;;;;;;5056378;28;20385;-60
2022/07/20 03:09:01;;;;;;;7.82;6.20;;;17.80;99.90;;;;;;5061980;28;20029;-59
2022/07/20 03:11:27;;;;;;;10.85;6.63;;;17.70;99.90;;;;;;5070720;28;20045;-60
2022/07/20 03:13:54;;;;;;;10.65;6.45;;;17.70;99.90;;;;;;5071339;28;20471;-60
2022/07/20 03:16:21;;;;;;;9.88;6.53;;;17.60;99.90;;;;;;5061453;28;20047;-59
2022/07/20 03:18:48;;;;;;;10.57;6.85;;;17.60;99.90;;;;;;5062672;28;20052;-60
2022/07/20 03:21:16;;;;;;;10.02;6.22;;;17.60;99.90;;;;;;5070656;28;20044;-60
2022/07/20 03:23:43;;;;;;;9.52;6.75;;;17.50;99.90;;;;;;5061259;28;20442;-60
2022/07/20 03:26:09;;;;;;;14.13;6.32;;;17.50;99.90;;;;;;5062878;28;20041;-60
2022/07/20 03:28:36;;;;;;;13.18;8.43;;;17.50;99.90;;;;;;5071034;28;20090;-60
2022/07/20 03:31:03;;;;;;;13.00;7.25;;;17.60;99.90;;;;;;5070769;28;20048;-60
2022/07/20 03:33:30;;;;;;;13.45;7.88;;;17.70;99.90;;;;;;5065726;28;20061;-59
2022/07/20 03:35:56;;;;;;;13.68;7.57;;;17.80;99.90;;;;;;5062472;28;20063;-59
2022/07/20 03:38:23;;;;;;;8.80;7.15;;;17.90;99.90;;;;;;5071003;28;20056;-59
2022/07/20 03:40:50;;;;;;;15.80;7.30;;;18.00;99.90;;;;;;5070703;28;20044;-60
2022/07/20 03:43:17;;;;;;;12.63;7.60;;;18.00;99.90;;;;;;5058798;28;20052;-61
2022/07/20 03:45:43;;;;;;;9.70;7.53;;;18.00;99.90;;;;;;5067962;28;20040;-61
2022/07/20 03:48:10;;;;;;;14.77;7.82;;;18.00;99.90;;;;;;5052465;28;20033;-61
2022/07/20 03:50:37;;;;;;;9.57;7.63;;;18.00;99.90;;;;;;5050298;28;20508;-61
2022/07/20 03:53:04;;;;;;;11.82;7.82;;;18.10;99.90;;;;;;5058697;28;20382;-61
2022/07/20 03:55:30;;;;;;;11.18;7.30;;;18.10;99.90;;;;;;5050991;28;20064;-61
2022/07/20 03:57:57;;;;;;;14.80;7.53;;;18.10;99.90;;;;;;5049649;28;20064;-61
2022/07/20 04:00:24;;;;;;;11.32;7.63;;;18.10;99.90;;;;;;5056554;28;20052;-61
2022/07/20 04:02:51;;;;;;;10.63;8.00;;;18.10;99.90;;;;;;5063915;28;20064;-61
2022/07/20 04:05:17;;;;;;;11.93;6.70;;;18.00;99.90;;;;;;5054081;28;20076;-61
2022/07/20 04:07:44;;;;;;;13.75;7.20;;;18.00;99.90;;;;;;5051925;28;20494;-61
2022/07/20 04:10:12;;;;;;;15.00;7.38;;;18.00;99.90;;;;;;5063920;28;20040;-61
2022/07/20 04:12:38;;;;;;;13.73;7.00;;;18.00;99.90;;;;;;5054231;28;20045;-61
2022/07/20 04:15:06;;;;;;;11.75;8.48;;;18.00;99.90;;;;;;5036196;28;20540;-61
2022/07/20 04:17:34;;;;;;;11.88;8.15;;;18.10;99.90;;;;;;5054244;28;20044;-60
2022/07/20 04:20:00;;;;;;;10.40;7.22;;;18.10;99.90;;;;;;5073195;28;20052;-60
2022/07/20 04:22:27;;;;;;;13.23;7.50;;;18.10;99.90;;;;;;5073029;28;20056;-60
2022/07/20 04:24:54;;;;;;;9.50;6.90;;;18.10;99.90;;;;;;5069464;28;20053;-60
2022/07/20 04:27:21;;;;;;;11.40;7.47;;;18.20;99.90;;;;;;5060821;28;20060;-60
2022/07/20 04:29:47;;;;;;;10.75;7.47;;;18.20;99.90;;;;;;5071576;28;20044;-60
2022/07/20 04:32:14;;;;;;;10.10;7.13;;;18.20;99.90;;;;;;5062127;28;20045;-60
2022/07/20 04:34:41;;;;;;;12.43;7.43;;;18.20;99.90;;;;;;5052234;28;20040;-61
2022/07/20 04:37:09;;;;;;;12.93;7.47;;;18.20;99.90;;;;;;5060929;28;20060;-61
2022/07/20 04:39:36;;;;;;;10.75;7.22;;;18.30;99.90;;;;;;5053369;28;20049;-61
2022/07/20 04:42:03;;;;;;;11.90;6.80;;;18.30;99.90;;;;;;5053079;28;20033;-60
2022/07/20 04:44:30;;;;;;;;;;;18.40;99.90;;;;;;5056490;28;20044;-61
2022/07/20 04:46:57;;;;;;;16.02;8.30;;;18.40;99.90;;;;;;5054315;28;19920;-61
2022/07/20 04:49:24;;;;;;;13.10;7.55;;;18.50;99.90;;;;;;5053021;28;20052;-61
2022/07/20 04:51:50;;;;;;;10.52;7.57;;;18.50;99.90;;;;;;5050093;28;20052;-61
2022/07/20 04:54:18;;;;;;;12.13;7.75;;;18.60;99.90;;;;;;5057253;28;20493;-61
2022/07/20 04:56:46;;;;;;;11.55;7.47;;;18.60;99.90;;;;;;5055934;28;20056;-60
2022/07/20 04:59:13;;;;;;;;;;;18.70;99.90;;;;;;5053716;28;20382;-61
2022/07/20 05:01:39;;;;;;;13.80;7.60;;;18.70;99.90;;;;;;5046015;28;19921;-61
2022/07/20 05:04:07;;;;;;;13.30;7.68;;;18.70;99.90;;;;;;5061498;28;20087;-60
2022/07/20 05:06:33;;;;;;;10.18;7.13;;;18.70;99.90;;;;;;5052897;28;20128;-60
2022/07/20 05:09:00;;;;;;;12.63;7.15;;;18.90;99.90;;;;;;5052590;28;20041;-60
2022/07/20 05:11:29;;;;;;;10.90;7.75;;;18.90;99.90;;;;;;5054638;28;20512;-61
2022/07/20 05:13:56;;;;;;;13.43;7.60;;;19.00;99.90;;;;;;5064641;28;20059;-61
2022/07/20 05:16:23;;;;;;;12.95;7.97;;;19.10;99.90;;;;;;5073211;28;20520;-61
2022/07/20 05:18:49;;;;;;;10.45;7.45;;;19.10;99.90;;;;;;5072763;28;20075;-61
2022/07/20 05:21:17;;;;;;;13.20;7.63;;;19.10;99.90;;;;;;5058365;28;20056;-61
2022/07/20 05:23:44;;;;;;;14.52;8.02;;;19.10;99.90;;;;;;5061367;28;20045;-60
2022/07/20 05:26:11;;;;;;;;;;;19.10;99.90;;;;;;5049862;28;20103;-61
2022/07/20 05:28:41;;;;;;;13.82;8.30;;;19.20;99.90;;;;;;5051172;28;20304;-61
2022/07/20 05:31:09;;;;;;;15.40;7.20;;;19.30;99.90;;;;;;5035266;28;20493;-61
2022/07/20 05:33:36;;;;;;;13.90;7.25;;;19.40;99.90;;;;;;5052547;28;20114;-61
2022/07/20 05:36:04;;;;;;;12.32;7.28;;;19.40;99.90;;;;;;5052046;28;20548;-61
2022/07/20 05:38:30;;;;;;;;;;;19.50;99.90;;;;;;5053214;28;20048;-61
2022/07/20 05:41:05;;;;;;;20.58;7.57;;;19.60;99.90;;;;;;5055713;28;19924;-60
2022/07/20 05:43:32;;;;;;;13.70;7.35;;;19.70;99.90;;;;;;5072244;28;20044;-61
2022/07/20 05:45:59;;;;;;;11.20;8.13;;;19.70;99.90;;;;;;5066815;28;20520;-61
2022/07/20 05:48:26;;;;;;;18.30;7.47;;;19.80;99.90;;;;;;5055141;28;20064;-60
2022/07/20 05:50:53;;;;;;;14.98;7.90;;;19.90;99.90;;;;;;5070572;28;20393;-61
2022/07/20 05:53:19;;;;;;;11.90;8.47;;;19.90;99.90;;;;;;5086717;22;20036;-61
2022/07/20 05:55:46;;;;;;;11.20;7.25;;;19.90;99.90;;;;;;5050022;28;20037;-62
2022/07/20 05:58:13;;;;;;;14.60;7.35;;;20.10;99.90;;;;;;5061001;28;20406;-61
2022/07/20 06:00:40;;;;;;;;;;;20.10;99.90;;;;;;5052062;28;20114;-61
2022/07/20 06:03:07;;;;;;;13.27;7.80;;;20.20;99.90;;;;;;5051655;28;19927;-62
2022/07/20 06:05:35;;;;;;;11.63;7.68;;;20.30;99.90;;;;;;5063668;28;20063;-61
2022/07/20 06:08:02;;;;;;;;;;;20.30;99.90;;;;;;5072169;28;20102;-61
2022/07/20 06:10:31;;;;;;;13.53;7.60;;;20.50;99.90;;;;;;5071572;28;19935;-61
2022/07/20 06:12:58;;;;;;;15.43;8.48;;;20.50;99.90;;;;;;5060340;28;20044;-61
2022/07/20 06:15:34;;;;;;;12.90;8.30;;;20.60;99.90;;;;;;5067739;28;20140;-62
2022/07/20 06:18:01;;;;;;;10.35;7.63;;;20.60;99.90;;;;;;5071858;28;20401;-61
2022/07/20 06:20:28;;;;;;;;;;;20.80;99.90;;;;;;5068049;28;20190;-61
2022/07/20 06:22:54;;;;;;;13.75;8.70;;;20.90;99.90;;;;;;5060481;28;19931;-61
2022/07/20 06:25:21;;;;;;;13.20;7.95;;;21.10;99.90;;;;;;5071698;28;20489;-61
2022/07/20 06:27:48;;;;;;;16.13;8.43;;;21.20;99.90;;;;;;5071681;28;20033;-61
2022/07/20 06:30:15;;;;;;;11.25;7.85;;;21.20;99.90;;;;;;5060944;28;20055;-61
2022/07/20 06:32:42;;;;;;;15.48;8.07;;;21.40;99.90;;;;;;5063104;28;20048;-61
2022/07/20 06:35:09;;;;;;;12.88;7.80;;;21.50;99.90;;;;;;5071568;28;20044;-61
2022/07/20 06:37:36;;;;;;;;;;;21.60;99.90;;;;;;5064814;28;20056;-62
2022/07/20 06:40:03;;;;;;;12.93;8.05;;;21.70;99.90;;;;;;5062414;28;19924;-62
2022/07/20 06:42:30;;;;;;;16.75;8.32;;;21.80;99.90;;;;;;5071390;28;20044;-61
2022/07/20 06:44:57;;;;;;;10.90;7.78;;;21.90;99.90;;;;;;5071536;28;20052;-62
2022/07/20 06:47:24;;;;;;;13.50;8.15;;;22.10;99.90;;;;;;5059047;28;20509;-62
2022/07/20 06:49:51;;;;;;;17.50;7.53;;;22.20;99.90;;;;;;5062771;28;20062;-62
2022/07/20 06:52:18;;;;;;;14.45;7.70;;;22.40;99.90;;;;;;5071370;28;20032;-61
2022/07/20 06:54:45;;;;;;;;;;;22.60;99.90;;;;;;5062169;28;20413;-62
2022/07/20 06:57:13;;;;;;;15.15;8.18;;;22.80;99.90;;;;;;5062925;28;19974;-62
2022/07/20 06:59:40;;;;;;;14.02;7.38;;;22.90;99.90;;;;;;5071236;28;20055;-61
2022/07/20 07:02:09;;;;;;;10.07;7.60;;;23.10;99.90;;;;;;5070622;28;20048;-62
2022/07/20 07:04:36;;;;;;;12.30;8.18;;;23.30;99.90;;;;;;5059303;28;20107;-62
2022/07/20 07:07:03;;;;;;;11.20;7.20;;;23.40;99.90;;;;;;5071054;28;20041;-62
2022/07/20 07:09:30;;;;;;;8.75;7.43;;;23.50;99.90;;;;;;5071205;28;20036;-62
2022/07/20 07:11:57;;;;;;;10.27;7.93;;;23.50;99.90;;;;;;5046439;28;20056;-62
2022/07/20 07:14:25;;;;;;;;;;;23.70;99.90;;;;;;5065852;28;20044;-62
2022/07/20 07:16:53;;;;;;;14.52;7.93;;;23.70;99.90;;;;;;5071070;28;19924;-62
2022/07/20 07:19:20;;;;;;;12.25;8.73;;;23.80;99.90;;;;;;5065007;28;20094;-62
2022/07/20 07:21:47;;;;;;;12.50;8.05;;;23.90;99.90;;;;;;5062313;28;20052;-62
2022/07/20 07:24:14;;;;;;;;;;;24.10;99.90;;;;;;5071433;28;20094;-62
2022/07/20 07:26:41;;;;;;;10.68;7.93;;;24.20;99.90;;;;;;5070350;28;19924;-62
2022/07/20 07:29:08;;;;;;;15.82;8.10;;;24.30;99.90;;;;;;5051415;28;20049;-62
2022/07/20 07:31:34;;;;;;;15.20;8.55;;;24.30;99.90;;;;;;5066563;28;20585;-62
2022/07/20 07:34:01;;;;;;;14.02;8.27;;;24.50;99.90;;;;;;5074506;28;20064;-62
2022/07/20 07:36:28;;;;;;;12.80;7.95;;;24.60;99.90;;;;;;5060520;28;20505;-62
2022/07/20 07:38:55;;;;;;;14.75;8.50;;;24.80;99.90;;;;;;5073576;28;20047;-62
2022/07/20 07:41:22;;;;;;;13.85;8.70;;;25.00;99.90;;;;;;5074441;28;20051;-62
2022/07/20 07:43:49;;;;;;;14.70;8.05;;;25.10;99.90;;;;;;5062909;28;20494;-62
2022/07/20 07:46:16;;;;;;;13.20;7.90;;;25.10;99.90;;;;;;5066249;28;20052;-62
2022/07/20 07:48:43;;;;;;;19.58;8.38;;;25.30;99.90;;;;;;5074445;28;20033;-62
2022/07/20 07:51:09;;;;;;;10.95;8.13;;;25.30;99.90;;;;;;5074268;28;20051;-62
2022/07/20 07:53:36;;;;;;;13.00;8.32;;;25.50;99.90;;;;;;5059454;28;20045;-62
2022/07/20 07:56:03;;;;;;;17.63;8.35;;;25.60;99.90;;;;;;5065795;28;20040;-62
2022/07/20 07:58:30;;;;;;;12.50;7.82;;;25.70;99.90;;;;;;5056417;28;20412;-62
2022/07/20 08:00:57;;;;;;;13.57;8.57;;;25.80;99.90;;;;;;5073883;28;20036;-62
2022/07/20 08:03:24;;;;;;;12.45;7.97;;;26.00;99.90;;;;;;5060721;28;20049;-62
2022/07/20 08:05:58;;;;;;;15.27;8.40;;;26.10;99.90;;;;;;5073643;28;20127;-62
2022/07/20 08:08:27;;;;;;;16.25;7.93;;;26.10;99.90;;;;;;5074251;28;20044;-62
2022/07/20 08:10:54;;;;;;;11.40;7.68;;;26.30;99.90;;;;;;5059317;28;20029;-62
2022/07/20 08:13:21;;;;;;;12.35;7.55;;;26.40;99.90;;;;;;5066313;28;20055;-62
2022/07/20 08:15:47;;;;;;;14.32;8.32;;;26.50;99.90;;;;;;5074156;28;20083;-62
2022/07/20 08:18:18;;;;;;;10.63;7.45;;;26.50;99.90;;;;;;5063520;28;20049;-63
2022/07/20 08:20:45;;;;;;;9.10;7.85;;;26.60;99.90;;;;;;5060006;28;20045;-62
2022/07/20 08:23:12;;;;;;;13.95;8.10;;;26.70;99.90;;;;;;5073724;28;20078;-63
2022/07/20 08:25:39;;;;;;;;;;;26.80;99.90;;;;;;5056356;28;20091;-62
2022/07/20 08:28:18;;;;;;;14.30;8.10;;;26.80;99.90;;;;;;5061667;28;19971;-62
2022/07/20 08:30:47;;;;;;;9.45;7.60;;;26.80;99.90;;;;;;5070762;28;20044;-62
2022/07/20 08:33:21;;;;;;;11.73;8.13;;;26.80;99.90;;;;;;5074157;28;20473;-62
2022/07/20 08:35:48;;;;;;;10.85;7.22;;;26.90;99.90;;;;;;5073956;28;20058;-62
2022/07/20 08:38:15;;;;;;;10.68;8.02;;;27.00;99.90;;;;;;5056701;28;20237;-62
2022/07/20 08:40:42;;;;;;;;;;;27.10;99.90;;;;;;5070789;28;20404;-62
2022/07/20 08:43:10;;;;;;;11.65;8.38;;;27.30;99.90;;;;;;5073459;28;19924;-63
2022/07/20 08:45:37;;;;;;;8.60;7.80;;;27.60;99.90;;;;;;5066914;28;20048;-62
2022/07/20 08:48:08;;;;;;;12.20;7.97;;;27.80;99.90;;;;;;5064932;28;20044;-62
2022/07/20 08:50:35;;;;;;;14.38;7.85;;;28.00;99.90;;;;;;5073040;28;20119;-62
2022/07/20 08:53:02;;;;;;;12.30;8.40;;;28.10;99.90;;;;;;5073704;28;20512;-62
2022/07/20 08:55:29;;;;;;;12.10;8.25;;;28.10;99.90;;;;;;5058366;28;20048;-62
2022/07/20 08:57:57;;;;;;;11.25;7.90;;;28.00;99.90;;;;;;5065360;28;20412;-62
2022/07/20 09:00:24;;;;;;;10.77;7.88;;;28.10;99.90;;;;;;5072806;28;20044;-62
2022/07/20 09:02:56;;;;;;;9.00;7.70;;;28.00;99.90;;;;;;5066432;28;20412;-62
2022/07/20 09:05:25;;;;;;;19.17;8.05;;;27.90;99.90;;;;;;5067826;28;20053;-62
2022/07/20 09:07:53;;;;;;;13.35;8.20;;;28.00;99.90;;;;;;5073106;28;20408;-62
2022/07/20 09:10:24;;;;;;;16.33;8.60;;;28.10;99.90;;;;;;5072801;28;20040;-62
2022/07/20 09:12:59;;;;;;;13.40;8.07;;;28.20;99.90;;;;;;5064896;28;20090;-63
2022/07/20 09:15:38;;;;;;;15.05;8.13;;;28.40;99.90;;;;;;5067457;28;20053;-63
2022/07/20 09:18:08;;;;;;;11.00;8.30;;;28.50;99.90;;;;;;5073025;28;20131;-62
2022/07/20 09:20:37;;;;;;;13.80;9.40;;;28.70;99.90;;;;;;5064822;28;20036;-62
2022/07/20 09:23:29;;;;;;;12.70;7.82;;;28.70;99.90;;;;;;5058789;28;20599;-63
2022/07/20 09:25:59;;;;;;;12.52;8.43;;;28.50;99.90;;;;;;5072781;28;20041;-62
2022/07/20 09:28:34;;;;;;;11.18;8.05;;;28.60;99.90;;;;;;5072849;28;20362;-63
2022/07/20 09:31:01;;;;;;;12.55;8.80;;;28.80;99.90;;;;;;5063098;28;20045;-63
2022/07/20 09:33:31;;;;;;;12.48;8.90;;;28.90;99.90;;;;;;5072396;28;20118;-63
2022/07/20 09:36:01;;;;;;;14.98;8.68;;;29.00;99.90;;;;;;5072725;28;20044;-63
2022/07/20 09:38:38;;;;;;;15.77;8.70;;;29.10;99.90;;;;;;5061082;28;20048;-63
2022/07/20 09:41:27;;;;;;;16.05;8.63;;;29.20;99.90;;;;;;5055899;28;20350;-63
2022/07/20 09:43:54;;;;;;;12.88;8.80;;;29.20;99.90;;;;;;5072535;28;20055;-62
2022/07/20 09:46:33;;;;;;;11.27;8.77;;;29.30;99.90;;;;;;5066417;28;20255;-63
2022/07/20 09:49:06;;;;;;;13.00;8.82;;;29.40;99.90;;;;;;5062760;28;20040;-63
2022/07/20 09:51:44;;;;;;;10.65;8.73;;;29.50;99.90;;;;;;5055558;28;20036;-63
2022/07/20 09:54:16;;;;;;;10.75;8.73;;;29.70;99.90;;;;;;5072129;28;20041;-63
2022/07/20 09:56:46;;;;;;;11.98;8.48;;;29.80;99.50;;;;;;5060763;28;20387;-63
2022/07/20 09:59:14;;;;;;;11.90;9.23;;;30.00;99.40;;;;;;5063517;28;20140;-63
2022/07/20 10:01:44;;;;;;;11.68;9.02;;;30.00;99.90;;;;;;5071771;28;20052;-63
2022/07/20 10:04:12;;;;;;;9.25;8.20;;;30.00;99.80;;;;;;5046624;28;20071;-63
2022/07/20 10:06:44;;;;;;;9.18;8.05;;;30.00;99.10;;;;;;5049867;28;20044;-63
2022/07/20 10:09:14;;;;;;;9.85;8.80;;;30.10;99.60;;;;;;5026728;28;20048;-63
2022/07/20 10:11:42;;;;;;;15.43;9.50;;;30.10;99.00;;;;;;5047619;28;20508;-63
2022/07/20 10:14:09;;;;;;;12.98;8.75;;;30.20;98.30;;;;;;5051492;28;20036;-63
2022/07/20 10:16:53;;;;;;;14.48;9.07;;;30.40;98.40;;;;;;5051610;28;20497;-63
2022/07/20 10:19:46;;;;;;;9.75;8.75;;;30.50;98.30;;;;;;5045533;28;20056;-63
2022/07/20 10:22:14;;;;;;;11.35;8.27;;;30.60;98.60;;;;;;5046944;28;20041;-63
2022/07/20 10:24:43;;;;;;;14.13;8.65;;;30.80;98.20;;;;;;5051223;28;20060;-63
2022/07/20 10:27:16;;;;;;;15.70;8.07;;;31.00;97.70;;;;;;5051651;28;20048;-63
2022/07/20 10:29:48;;;;;;;15.30;8.65;;;31.10;97.30;;;;;;5051437;28;20405;-63
2022/07/20 10:32:28;;;;;;;14.80;8.40;;;31.30;96.40;;;;;;5053188;28;20044;-63
2022/07/20 10:34:58;;;;;;;11.45;8.32;;;31.40;95.90;;;;;;5052791;28;20492;-63
2022/07/20 10:37:40;;;;;;;9.85;8.85;;;31.40;96.00;;;;;;5051657;28;20059;-63
2022/07/20 10:41:31;;;;;;;9.38;7.78;;;31.40;96.60;;;;;;5049536;28;20626;-63
2022/07/20 10:43:23;;;;;;;9.77;7.88;;;31.60;97.50;;;;;;5054477;28;20052;-63
2022/07/20 10:45:50;;;;;;;20.13;9.38;;;31.70;96.70;;;;;;5053542;28;20102;-63
2022/07/20 10:48:18;;;;;;;11.20;8.52;;;31.60;97.10;;;;;;5046349;28;20409;-63
2022/07/20 10:50:49;;;;;;;11.77;8.15;;;31.60;95.80;;;;;;5068284;28;20044;-63
2022/07/20 10:53:16;;;;;;;14.77;9.38;;;31.60;94.90;;;;;;5071195;28;20040;-63
2022/07/20 10:55:55;;;;;;;10.13;9.00;;;31.60;95.20;;;;;;5066165;28;20044;-63
2022/07/20 10:58:24;;;;;;;10.02;8.38;;;31.70;95.10;;;;;;5065360;28;20086;-63
2022/07/20 11:00:57;;;;;;;12.35;8.52;;;31.80;93.70;;;;;;5070983;28;20056;-63
2022/07/20 11:03:51;;;;;;;13.70;8.50;;;32.00;94.80;;;;;;5071250;28;20408;-63
2022/07/20 11:06:22;;;;;;;8.27;7.47;;;32.10;94.30;;;;;;5049270;28;20048;-63
2022/07/20 11:08:57;;;;;;;11.70;8.32;;;32.10;94.90;;;;;;5068818;28;20499;-63
2022/07/20 11:11:27;;;;;;;10.98;8.55;;;32.30;95.20;;;;;;5068221;28;20040;-63
2022/07/20 11:13:54;;;;;;;12.48;8.88;;;32.30;93.30;;;;;;5059535;28;20041;-63
2022/07/20 11:16:26;;;;;;;13.48;8.90;;;32.50;93.70;;;;;;5067467;28;20048;-63
2022/07/20 11:18:54;;;;;;;9.88;8.77;;;32.40;94.80;;;;;;5050772;28;20045;-63
2022/07/20 11:21:40;;;;;;;11.40;8.50;;;32.30;94.60;;;;;;5050485;28;20047;-63
2022/07/20 11:24:23;;;;;;;12.30;9.40;;;32.20;94.00;;;;;;5055160;28;20067;-63
2022/07/20 11:26:51;;;;;;;9.98;8.38;;;32.20;93.40;;;;;;5070716;28;20041;-63
2022/07/20 11:29:22;;;;;;;9.15;8.25;;;32.30;94.40;;;;;;5071094;28;20047;-63
2022/07/20 11:31:49;;;;;;;10.48;7.25;;;32.30;93.90;;;;;;5056398;28;20064;-63
2022/07/20 11:34:16;;;;;;;12.82;8.73;;;32.40;93.90;;;;;;5064194;28;20499;-63
2022/07/20 11:36:43;;;;;;;9.98;7.38;;;32.40;94.80;;;;;;5070877;28;20115;-64
2022/07/20 11:39:11;;;;;;;8.15;7.07;;;32.40;91.90;;;;;;5055788;28;20052;-63
2022/07/20 11:41:43;;;;;;;8.82;7.57;;;32.50;92.70;;;;;;5062092;28;20102;-63
2022/07/20 11:44:18;;;;;;;10.85;6.40;;;32.60;91.40;;;;;;5070776;28;20045;-63
2022/07/20 11:46:48;;;;;;;7.75;6.95;;;32.70;90.50;;;;;;5065987;28;20040;-63
2022/07/20 11:49:16;;;;;;;10.95;7.38;;;32.80;90.90;;;;;;5063895;28;20044;-63
2022/07/20 11:52:05;;;;;;;8.80;7.57;;;32.80;91.00;;;;;;5070653;28;20048;-63
2022/07/20 11:54:42;;;;;;;11.35;6.95;;;32.80;91.80;;;;;;5077983;22;20045;-64
2022/07/20 11:57:08;;;;;;;9.23;6.82;;;33.00;91.60;;;;;;5040083;28;20409;-64
2022/07/20 11:59:43;;;;;;;12.55;7.53;;;33.20;91.30;;;;;;5055031;28;20059;-63
2022/07/20 12:02:11;;;;;;;10.05;6.82;;;33.20;91.60;;;;;;5042843;28;20047;-63
2022/07/20 12:04:38;;;;;;;9.85;7.45;;;33.40;91.20;;;;;;5055304;28;20052;-63
2022/07/20 12:08:07;;;;;;;14.27;7.50;;;33.40;91.30;;;;;;5036336;28;20443;-63
2022/07/20 12:09:52;;;;;;;13.25;7.25;;;33.30;91.70;;;;;;5070220;28;20044;-63
2022/07/20 12:12:45;;;;;;;12.93;7.50;;;33.30;91.30;;;;;;5067743;28;20047;-63
2022/07/20 12:15:12;;;;;;;10.27;7.97;;;33.20;91.80;;;;;;5055885;28;20187;-63
2022/07/20 12:17:50;;;;;;;14.05;6.82;;;33.10;91.80;;;;;;5070648;28;20040;-64
2022/07/20 12:20:19;;;;;;;12.52;6.55;;;33.10;91.20;;;;;;5049606;28;20409;-63
2022/07/20 12:22:51;;;;;;;9.60;6.30;;;33.10;89.60;;;;;;5063061;28;20127;-63
2022/07/20 12:25:18;;;;;;;10.75;6.20;;;33.00;90.80;;;;;;5073913;28;20052;-63
2022/07/20 12:27:46;;;;;;;7.60;5.47;;;33.10;89.40;;;;;;5073989;28;20045;-63
2022/07/20 12:30:38;;;;;;;8.32;6.50;;;33.20;90.50;;;;;;5063902;28;20512;-63
2022/07/20 12:33:14;;;;;;;13.73;6.35;;;33.20;88.80;;;;;;5034561;28;20509;-63
2022/07/20 12:35:45;;;;;;;6.75;5.28;;;33.20;87.50;;;;;;5033674;28;20045;-63
2022/07/20 12:38:14;;;;;;;6.43;5.22;;;33.20;88.60;;;;;;5054788;28;20052;-63
2022/07/20 12:40:47;;;;;;;7.57;5.07;;;33.20;82.90;;;;;;5070169;28;20048;-63
2022/07/20 12:43:34;;;;;;;12.13;5.70;;;33.20;81.70;;;;;;5073666;28;20511;-64
2022/07/20 12:46:07;;;;;;;9.45;5.75;;;33.30;83.30;;;;;;5071847;28;20051;-63
2022/07/20 12:48:36;;;;;;;11.15;5.43;;;33.30;80.50;;;;;;5057419;28;20037;-64
2022/07/20 12:51:05;;;;;;;9.98;5.40;;;33.40;80.80;;;;;;5054821;28;20048;-63
2022/07/20 12:53:33;;;;;;;12.93;5.88;;;33.50;80.70;;;;;;5073555;28;20048;-63
2022/07/20 12:56:00;;;;;;;7.95;5.20;;;33.50;82.00;;;;;;5064039;28;20048;-63
2022/07/20 12:58:27;;;;;;;7.18;5.10;;;33.40;78.60;;;;;;5047185;28;20048;-63